Time;durP1;ratioP1;P1;durP2;ratioP2;P2;SDS_P1;SDS_P2;PMS_P1;PMS_P2;Temp;Humidity;BMP_temperature;BMP_pressure;BME280_temperature;BME280_humidity;BME280_pressure;Samples;Min_cycle;Max_cycle;Signal;HPM_P1;HPM_P2
2021/04/14 00:00:50;;;;;;;2.20;0.90;;;20.80;41.40;;;;;;5081196;28;20111;-50
2021/04/14 00:03:20;;;;;;;1.90;0.90;;;20.70;41.50;;;;;;5080241;28;20114;-45
2021/04/14 00:05:46;;;;;;;3.47;1.40;;;20.70;41.40;;;;;;5078389;28;20086;-51
2021/04/14 00:08:12;;;;;;;1.85;0.77;;;20.70;41.30;;;;;;5079908;28;20354;-56
2021/04/14 00:10:39;;;;;;;3.10;1.20;;;20.70;41.30;;;;;;5081427;28;20040;-45
2021/04/14 00:13:08;;;;;;;3.88;1.00;;;20.70;41.30;;;;;;5079531;28;20085;-53
2021/04/14 00:15:37;;;;;;;1.42;0.90;;;20.70;41.30;;;;;;5080276;28;20090;-55
2021/04/14 00:18:04;;;;;;;2.25;1.15;;;20.70;41.30;;;;;;5081734;28;20035;-50
2021/04/14 00:20:30;;;;;;;3.13;1.10;;;20.70;41.30;;;;;;5073163;28;20591;-50
2021/04/14 00:22:56;;;;;;;1.35;0.77;;;20.70;41.40;;;;;;5071763;28;20032;-53
2021/04/14 00:25:26;;;;;;;2.40;0.70;;;20.70;41.20;;;;;;5071075;28;20037;-50
2021/04/14 00:27:52;;;;;;;1.75;0.85;;;20.70;41.10;;;;;;5072130;28;20034;-52
2021/04/14 00:30:18;;;;;;;3.03;0.80;;;20.70;41.10;;;;;;5070737;28;20027;-53
2021/04/14 00:32:44;;;;;;;1.40;0.80;;;20.70;41.00;;;;;;5071978;28;20029;-51
2021/04/14 00:35:10;;;;;;;3.63;1.05;;;20.60;41.70;;;;;;5074193;28;20032;-56
2021/04/14 00:37:36;;;;;;;0.90;0.65;;;20.60;41.00;;;;;;5075797;28;20028;-51
2021/04/14 00:40:11;;;;;;;1.73;0.88;;;20.60;41.00;;;;;;5075803;28;20084;-54
2021/04/14 00:42:37;;;;;;;3.25;0.98;;;20.60;41.00;;;;;;5075797;28;20358;-51
2021/04/14 00:45:04;;;;;;;1.63;0.98;;;20.60;40.90;;;;;;5075722;28;20047;-47
2021/04/14 00:47:30;;;;;;;0.90;0.60;;;20.60;40.80;;;;;;5091423;28;20094;-49
2021/04/14 00:49:56;;;;;;;0.80;0.70;;;20.60;40.80;;;;;;5095948;28;20045;-52
2021/04/14 00:52:21;;;;;;;1.90;0.80;;;20.60;40.90;;;;;;5095156;28;20103;-49
2021/04/14 00:54:47;;;;;;;2.20;0.85;;;20.60;40.80;;;;;;5095867;28;20426;-51
2021/04/14 00:57:12;;;;;;;1.67;0.85;;;20.60;40.80;;;;;;5094726;28;20496;-53
2021/04/14 00:59:38;;;;;;;1.67;0.75;;;20.60;40.70;;;;;;5095770;28;20033;-50
2021/04/14 01:02:05;;;;;;;2.65;1.15;;;20.60;40.70;;;;;;5095275;28;20834;-49
2021/04/14 01:04:33;;;;;;;2.80;0.82;;;20.60;40.70;;;;;;5095243;28;20614;-50
2021/04/14 01:06:59;;;;;;;1.50;0.90;;;20.60;40.70;;;;;;5095653;28;20465;-51
2021/04/14 01:09:25;;;;;;;2.97;0.73;;;20.60;40.70;;;;;;5094636;28;20031;-51
2021/04/14 01:11:50;;;;;;;2.47;0.77;;;20.60;40.70;;;;;;5095344;28;20032;-49
2021/04/14 01:14:16;;;;;;;1.60;0.75;;;20.60;40.70;;;;;;5094993;28;20043;-48
2021/04/14 01:16:42;;;;;;;1.20;0.80;;;20.60;40.70;;;;;;5095423;28;20028;-51
2021/04/14 01:19:07;;;;;;;0.98;0.70;;;20.60;40.70;;;;;;5095475;28;20358;-49
2021/04/14 01:21:39;;;;;;;1.95;0.93;;;20.60;40.60;;;;;;5094541;28;20481;-48
2021/04/14 01:24:11;;;;;;;1.17;0.85;;;20.60;40.60;;;;;;5095289;28;20024;-51
2021/04/14 01:26:36;;;;;;;1.05;0.90;;;20.60;40.60;;;;;;5094574;28;20024;-50
2021/04/14 01:29:04;;;;;;;1.60;0.80;;;20.60;40.50;;;;;;5095242;28;20366;-54
2021/04/14 01:31:32;;;;;;;0.95;0.68;;;20.50;40.40;;;;;;5094118;28;20043;-52
2021/04/14 01:34:14;;;;;;;3.47;1.10;;;20.50;40.50;;;;;;5095055;28;20085;-47
2021/04/14 01:36:40;;;;;;;2.50;1.00;;;20.60;40.50;;;;;;5095116;28;20035;-51
2021/04/14 01:39:08;;;;;;;2.92;0.90;;;20.50;40.50;;;;;;5094774;28;20392;-51
2021/04/14 01:41:34;;;;;;;1.02;0.70;;;20.50;40.50;;;;;;5093878;28;20801;-49
2021/04/14 01:44:00;;;;;;;0.98;0.60;;;20.60;40.50;;;;;;5094715;28;20036;-48
2021/04/14 01:46:25;;;;;;;1.08;0.77;;;20.50;40.50;;;;;;5084660;28;20095;-52
2021/04/14 01:48:51;;;;;;;1.48;0.77;;;20.50;40.40;;;;;;5074572;28;20082;-48
2021/04/14 01:51:17;;;;;;;2.13;0.80;;;20.50;40.30;;;;;;5073729;28;20020;-49
2021/04/14 01:53:43;;;;;;;1.42;0.77;;;20.50;40.40;;;;;;5074564;28;20025;-47
2021/04/14 01:56:09;;;;;;;0.80;0.50;;;20.60;40.40;;;;;;5074346;28;20025;-54
2021/04/14 01:58:34;;;;;;;1.27;0.73;;;20.50;40.30;;;;;;5073661;28;20091;-53
2021/04/14 02:01:06;;;;;;;1.35;0.90;;;20.50;40.30;;;;;;5074376;28;20441;-51
2021/04/14 02:03:34;;;;;;;1.60;0.60;;;20.50;40.30;;;;;;5073387;28;20052;-51
2021/04/14 02:06:00;;;;;;;0.85;0.63;;;20.50;40.20;;;;;;5074318;28;20032;-48
2021/04/14 02:08:26;;;;;;;2.53;0.88;;;20.50;40.30;;;;;;5073394;28;20021;-53
2021/04/14 02:10:52;;;;;;;0.90;0.68;;;20.50;40.30;;;;;;5074482;28;20024;-50
2021/04/14 02:13:22;;;;;;;1.17;0.70;;;20.50;40.20;;;;;;5073352;28;20021;-48
2021/04/14 02:15:49;;;;;;;1.20;0.80;;;20.50;40.20;;;;;;5074096;28;20036;-52
2021/04/14 02:18:15;;;;;;;1.40;0.80;;;20.50;40.20;;;;;;5073360;28;20075;-56
2021/04/14 02:20:41;;;;;;;1.25;0.77;;;20.50;40.20;;;;;;5074382;28;20109;-52
2021/04/14 02:23:29;;;;;;;2.35;0.80;;;20.50;40.30;;;;;;5073683;28;20067;-51
2021/04/14 02:25:57;;;;;;;1.70;0.75;;;20.50;40.10;;;;;;5067953;28;20498;-49
2021/04/14 02:28:23;;;;;;;0.93;0.60;;;20.50;40.10;;;;;;5073049;28;20028;-49
2021/04/14 02:30:49;;;;;;;2.08;1.08;;;20.50;40.10;;;;;;5072423;28;20027;-52
2021/04/14 02:33:16;;;;;;;1.13;0.70;;;20.50;40.20;;;;;;5073060;28;20025;-56
2021/04/14 02:35:42;;;;;;;2.88;1.10;;;20.50;40.10;;;;;;5073604;28;20029;-53
2021/04/14 02:38:10;;;;;;;1.65;0.80;;;20.50;40.10;;;;;;5073550;28;20121;-51
2021/04/14 02:40:35;;;;;;;1.20;0.82;;;20.50;40.20;;;;;;5072659;28;20557;-55
2021/04/14 02:43:02;;;;;;;1.27;1.13;;;20.50;40.10;;;;;;5073231;28;20074;-50
2021/04/14 02:45:32;;;;;;;1.58;0.75;;;20.50;40.10;;;;;;5072804;28;20032;-52
2021/04/14 02:47:58;;;;;;;1.63;0.90;;;20.50;40.70;;;;;;5073441;28;20028;-50
2021/04/14 02:50:24;;;;;;;0.77;0.65;;;20.50;40.00;;;;;;5072486;28;20029;-50
2021/04/14 02:52:50;;;;;;;2.33;0.98;;;20.50;40.10;;;;;;5073405;28;20028;-47
2021/04/14 02:55:18;;;;;;;1.73;0.80;;;20.50;40.00;;;;;;5072572;28;20078;-54
2021/04/14 02:57:43;;;;;;;1.80;0.90;;;20.50;40.10;;;;;;5072848;28;20111;-47
2021/04/14 03:00:10;;;;;;;1.80;0.68;;;20.50;40.00;;;;;;5073586;28;20427;-46
2021/04/14 03:02:37;;;;;;;1.30;0.73;;;20.50;40.00;;;;;;5072435;28;20020;-48
2021/04/14 03:05:07;;;;;;;2.30;1.10;;;20.50;40.00;;;;;;5072959;28;20064;-51
2021/04/14 03:07:33;;;;;;;1.63;0.90;;;20.50;40.00;;;;;;5072261;28;20039;-50
2021/04/14 03:09:59;;;;;;;1.38;0.73;;;20.50;40.00;;;;;;5073147;28;20036;-51
2021/04/14 03:12:25;;;;;;;1.30;0.80;;;20.50;39.90;;;;;;5071842;28;20028;-51
2021/04/14 03:14:50;;;;;;;1.20;0.63;;;20.50;40.00;;;;;;5072947;28;20031;-48
2021/04/14 03:17:16;;;;;;;2.05;0.90;;;20.50;39.90;;;;;;5072519;28;20043;-56
2021/04/14 03:19:41;;;;;;;1.00;0.80;;;20.50;39.80;;;;;;5072486;28;20043;-51
2021/04/14 03:22:07;;;;;;;1.70;0.80;;;20.50;39.80;;;;;;5072850;28;20107;-49
2021/04/14 03:24:33;;;;;;;2.53;0.90;;;20.50;39.70;;;;;;5071830;28;20410;-47
2021/04/14 03:26:59;;;;;;;1.48;0.80;;;20.50;40.40;;;;;;5072393;28;20032;-49
2021/04/14 03:29:25;;;;;;;2.03;0.98;;;20.50;39.70;;;;;;5071727;28;20143;-51
2021/04/14 03:31:50;;;;;;;1.20;0.75;;;20.50;39.80;;;;;;5072373;28;20384;-52
2021/04/14 03:34:16;;;;;;;2.25;0.80;;;20.50;39.80;;;;;;5071974;28;20024;-55
2021/04/14 03:36:41;;;;;;;1.50;0.90;;;20.50;39.80;;;;;;5071818;28;20035;-49
2021/04/14 03:39:08;;;;;;;1.50;0.70;;;20.60;39.70;;;;;;5072131;28;20025;-49
2021/04/14 03:41:34;;;;;;;1.52;0.63;;;20.50;39.60;;;;;;5071899;28;20043;-55
2021/04/14 03:44:00;;;;;;;2.53;1.00;;;20.60;39.70;;;;;;5072339;28;20425;-50
2021/04/14 03:46:26;;;;;;;1.45;1.00;;;20.60;39.70;;;;;;5079614;28;20465;-51
2021/04/14 03:48:53;;;;;;;1.27;0.82;;;20.60;39.70;;;;;;5092626;28;20024;-49
2021/04/14 03:51:20;;;;;;;1.55;0.88;;;20.50;39.70;;;;;;5091585;28;20034;-56
2021/04/14 03:53:46;;;;;;;2.42;0.85;;;20.60;39.70;;;;;;5092341;28;20469;-47
2021/04/14 03:56:15;;;;;;;1.13;0.47;;;20.50;39.60;;;;;;5092558;28;20077;-50
2021/04/14 03:58:43;;;;;;;1.63;0.70;;;20.50;39.50;;;;;;5091551;28;20532;-51
2021/04/14 04:01:15;;;;;;;1.25;0.70;;;20.60;39.60;;;;;;5092468;28;20081;-48
2021/04/14 04:03:41;;;;;;;1.92;1.10;;;20.60;39.60;;;;;;5091563;28;20055;-47
2021/04/14 04:06:07;;;;;;;1.20;0.68;;;20.60;39.60;;;;;;5091981;28;20034;-53
2021/04/14 04:08:33;;;;;;;1.35;0.75;;;20.60;39.60;;;;;;5090772;28;20466;-48
2021/04/14 04:10:59;;;;;;;1.20;0.73;;;20.60;39.60;;;;;;5092115;28;20036;-53
2021/04/14 04:13:26;;;;;;;1.40;0.90;;;20.60;39.50;;;;;;5091174;28;20031;-53
2021/04/14 04:15:52;;;;;;;2.20;1.00;;;20.60;39.50;;;;;;5092362;28;20132;-53
2021/04/14 04:18:17;;;;;;;1.50;0.80;;;20.60;39.50;;;;;;5090561;28;20114;-55
2021/04/14 04:20:43;;;;;;;1.92;0.90;;;20.60;39.50;;;;;;5091612;28;20454;-48
2021/04/14 04:23:10;;;;;;;1.27;0.70;;;20.60;39.50;;;;;;5092094;28;20028;-50
2021/04/14 04:25:36;;;;;;;2.15;1.30;;;20.50;39.40;;;;;;5091123;28;20028;-50
2021/04/14 04:28:03;;;;;;;1.40;1.10;;;20.60;39.50;;;;;;5092144;28;20030;-49
2021/04/14 04:30:29;;;;;;;1.92;0.63;;;20.60;39.50;;;;;;5091223;28;20137;-52
2021/04/14 04:32:56;;;;;;;1.00;0.90;;;20.60;39.40;;;;;;5091806;28;20025;-52
2021/04/14 04:35:23;;;;;;;0.80;0.60;;;20.60;39.40;;;;;;5091198;28;20032;-54
2021/04/14 04:37:49;;;;;;;1.17;0.80;;;20.60;39.40;;;;;;5091898;28;20052;-47
2021/04/14 04:40:15;;;;;;;1.85;1.02;;;20.60;39.40;;;;;;5091826;28;20036;-53
2021/04/14 04:42:41;;;;;;;1.33;0.90;;;20.60;39.40;;;;;;5090983;28;20496;-49
2021/04/14 04:45:09;;;;;;;1.38;0.80;;;20.60;39.40;;;;;;5091735;28;20141;-51
2021/04/14 04:47:35;;;;;;;1.80;0.90;;;20.60;39.30;;;;;;5073623;28;20369;-47
2021/04/14 04:50:01;;;;;;;1.10;0.98;;;20.60;39.30;;;;;;5071850;28;20111;-48
2021/04/14 04:52:27;;;;;;;1.98;0.70;;;20.60;39.30;;;;;;5069523;28;20060;-48
2021/04/14 04:54:53;;;;;;;1.70;0.70;;;20.60;39.30;;;;;;5070338;28;20032;-48
2021/04/14 04:57:18;;;;;;;2.00;0.70;;;20.60;39.30;;;;;;5071425;28;20029;-57
2021/04/14 04:59:44;;;;;;;3.00;0.77;;;20.60;39.30;;;;;;5071131;28;20386;-49
2021/04/14 05:02:12;;;;;;;2.05;0.80;;;20.60;39.30;;;;;;5071624;28;20074;-45
2021/04/14 05:04:38;;;;;;;4.63;0.77;;;20.60;39.30;;;;;;5070094;28;20139;-50
2021/04/14 05:07:03;;;;;;;1.63;0.85;;;20.60;39.30;;;;;;5070259;28;20154;-48
2021/04/14 05:09:29;;;;;;;1.67;0.88;;;20.60;39.30;;;;;;5070462;28;20458;-51
2021/04/14 05:11:54;;;;;;;1.10;0.75;;;20.60;39.30;;;;;;5071211;28;20488;-48
2021/04/14 05:14:20;;;;;;;0.68;0.68;;;20.60;39.30;;;;;;5071198;28;20028;-54
2021/04/14 05:16:46;;;;;;;1.08;0.77;;;20.60;39.30;;;;;;5071126;28;20029;-49
2021/04/14 05:19:11;;;;;;;2.65;0.90;;;20.60;39.30;;;;;;5070971;28;20071;-51
2021/04/14 05:21:39;;;;;;;1.75;0.85;;;20.60;39.40;;;;;;5073627;28;20028;-48
2021/04/14 05:24:06;;;;;;;1.20;0.80;;;20.70;39.40;;;;;;5074481;28;20072;-47
2021/04/14 05:26:32;;;;;;;4.20;0.80;;;20.60;39.40;;;;;;5074362;28;20036;-44
2021/04/14 05:28:58;;;;;;;1.65;0.90;;;20.70;39.60;;;;;;5075050;28;20032;-47
2021/04/14 05:31:29;;;;;;;2.38;0.70;;;20.70;39.60;;;;;;5074073;28;20487;-48
2021/04/14 05:33:56;;;;;;;3.63;0.90;;;20.80;40.00;;;;;;5074947;28;20024;-46
2021/04/14 05:36:22;;;;;;;2.75;1.00;;;20.80;40.30;;;;;;5074141;28;20115;-54
2021/04/14 05:38:48;;;;;;;5.07;1.00;;;20.80;40.20;;;;;;5074461;28;20078;-49
2021/04/14 05:41:14;;;;;;;6.53;1.15;;;20.80;40.60;;;;;;5074670;28;20028;-49
2021/04/14 05:43:40;;;;;;;14.45;2.33;;;20.80;40.50;;;;;;5073844;28;20028;-50
2021/04/14 05:46:09;;;;;;;14.25;1.42;;;20.80;40.50;;;;;;5079132;28;20044;-48
2021/04/14 05:48:37;;;;;;;8.65;1.50;;;20.80;40.70;;;;;;5094123;28;20024;-55
2021/04/14 05:51:06;;;;;;;8.73;1.80;;;20.80;40.70;;;;;;5095024;28;20065;-49
2021/04/14 05:53:33;;;;;;;12.63;1.80;;;20.80;41.20;;;;;;5093763;28;20035;-47
2021/04/14 05:55:59;;;;;;;12.60;1.58;;;20.80;41.30;;;;;;5094895;28;20472;-51
2021/04/14 05:58:26;;;;;;;11.55;1.80;;;20.80;41.50;;;;;;5093642;28;20046;-53
2021/04/14 06:00:51;;;;;;;15.73;1.92;;;20.80;41.40;;;;;;5094609;28;20032;-47
2021/04/14 06:03:17;;;;;;;13.13;2.55;;;20.80;41.70;;;;;;5094271;28;20101;-49
2021/04/14 06:05:43;;;;;;;15.60;3.58;;;20.80;42.90;;;;;;5093609;28;20497;-53
2021/04/14 06:08:08;;;;;;;10.07;3.30;;;20.80;43.50;;;;;;5094397;28;20380;-49
2021/04/14 06:10:34;;;;;;;16.38;3.65;;;20.90;44.30;;;;;;5093576;28;20023;-50
2021/04/14 06:13:00;;;;;;;11.77;3.45;;;20.90;44.90;;;;;;5094573;28;20062;-53
2021/04/14 06:15:32;;;;;;;12.27;3.10;;;20.80;43.30;;;;;;5093273;28;20028;-49
2021/04/14 06:17:58;;;;;;;12.48;4.00;;;20.70;42.20;;;;;;5094528;28;20361;-51
2021/04/14 06:20:25;;;;;;;7.07;3.08;;;20.50;37.10;;;;;;5091974;28;20057;-55
2021/04/14 06:22:52;;;;;;;9.73;2.90;;;20.50;37.80;;;;;;5092960;28;20032;-49
2021/04/14 06:25:20;;;;;;;9.10;2.58;;;20.50;41.10;;;;;;5093961;28;20143;-50
2021/04/14 06:30:17;;;;;;;5.55;2.50;;;20.50;42.80;;;;;;5093778;28;20039;-52
2021/04/14 06:32:44;;;;;;;6.30;2.50;;;20.50;42.70;;;;;;5092501;28;20201;-52
2021/04/14 06:35:10;;;;;;;9.43;2.30;;;20.60;42.60;;;;;;5093889;28;20047;-50
2021/04/14 06:37:36;;;;;;;10.82;2.47;;;20.60;42.50;;;;;;5093123;28;20031;-51
2021/04/14 06:43:07;;;;;;;7.30;2.25;;;20.60;42.30;;;;;;5093588;28;20046;-50
2021/04/14 06:45:55;;;;;;;7.00;2.45;;;20.60;42.30;;;;;;5092651;28;20082;-47
2021/04/14 06:48:39;;;;;;;8.38;2.10;;;20.60;42.20;;;;;;5073395;28;20025;-54
2021/04/14 06:51:25;;;;;;;8.75;2.50;;;20.60;42.10;;;;;;5077724;28;20024;-50
2021/04/14 06:53:56;;;;;;;6.80;1.90;;;20.70;42.10;;;;;;5093413;28;20063;-51
2021/04/14 06:56:23;;;;;;;4.43;2.20;;;20.70;42.20;;;;;;5090517;28;20032;-54
2021/04/14 06:58:52;;;;;;;7.38;1.80;;;20.60;42.00;;;;;;5092589;28;20039;-50
2021/04/14 07:01:23;;;;;;;6.85;2.08;;;20.70;42.00;;;;;;5093108;28;20026;-48
2021/04/14 07:04:01;;;;;;;10.47;2.13;;;20.60;41.90;;;;;;5092521;28;20043;-49
2021/04/14 07:06:29;;;;;;;9.95;2.75;;;20.70;41.90;;;;;;5092371;28;20619;-52
2021/04/14 07:09:22;;;;;;;7.20;2.20;;;20.70;41.80;;;;;;5093043;28;20036;-48
2021/04/14 07:11:48;;;;;;;6.10;1.98;;;20.70;41.80;;;;;;5092396;28;20042;-52
2021/04/14 07:14:17;;;;;;;6.82;1.90;;;20.70;41.70;;;;;;5092985;28;20043;-53
2021/04/14 07:17:13;;;;;;;8.98;2.85;;;20.70;41.70;;;;;;5090686;28;20589;-49
2021/04/14 07:19:49;;;;;;;6.40;2.63;;;20.70;41.70;;;;;;5071944;28;20020;-50
2021/04/14 07:22:21;;;;;;;7.03;2.38;;;20.70;41.60;;;;;;5089524;28;20540;-52
2021/04/14 07:25:14;;;;;;;8.07;2.17;;;20.70;41.50;;;;;;5092110;28;20032;-48
2021/04/14 07:28:03;;;;;;;4.35;1.92;;;20.70;41.50;;;;;;5092101;28;20042;-50
2021/04/14 07:30:40;;;;;;;5.03;2.30;;;20.70;41.60;;;;;;5053263;28;20039;-52
2021/04/14 07:33:38;;;;;;;5.05;1.92;;;20.70;41.50;;;;;;5092895;28;20024;-47
2021/04/14 07:36:31;;;;;;;5.32;1.98;;;20.70;41.50;;;;;;5091810;28;20088;-52
2021/04/14 07:39:05;;;;;;;5.32;1.88;;;20.70;41.40;;;;;;5092904;28;20028;-50
2021/04/14 07:41:53;;;;;;;5.85;2.28;;;20.70;41.30;;;;;;5091682;28;20031;-49
2021/04/14 07:44:29;;;;;;;4.40;1.70;;;20.70;41.30;;;;;;5092738;28;20101;-53
2021/04/14 07:46:55;;;;;;;8.10;2.40;;;20.70;41.30;;;;;;5082031;28;20587;-53
2021/04/14 07:49:23;;;;;;;3.65;1.77;;;20.70;41.30;;;;;;5072938;28;20024;-51
2021/04/14 07:51:49;;;;;;;6.47;2.30;;;20.70;41.40;;;;;;5079257;28;20162;-49
2021/04/14 07:54:22;;;;;;;4.43;1.40;;;20.70;41.30;;;;;;5082862;28;20112;-49
2021/04/14 07:56:51;;;;;;;3.28;1.30;;;20.70;41.20;;;;;;5071051;28;20036;-48
2021/04/14 07:59:28;;;;;;;5.70;1.90;;;20.70;41.30;;;;;;5072247;28;20029;-52
2021/04/14 08:02:26;;;;;;;3.65;2.00;;;20.70;41.20;;;;;;5072310;28;20029;-52
2021/04/14 08:05:11;;;;;;;4.35;1.50;;;20.70;41.20;;;;;;5072434;28;20135;-51
2021/04/14 08:07:46;;;;;;;6.88;1.77;;;20.70;41.20;;;;;;5070824;28;20104;-53
2021/04/14 08:10:22;;;;;;;4.38;1.65;;;20.70;41.20;;;;;;5087382;28;20025;-50
2021/04/14 08:13:03;;;;;;;4.00;1.70;;;20.70;41.20;;;;;;5092109;28;20028;-51
2021/04/14 08:15:35;;;;;;;4.55;1.63;;;20.70;41.10;;;;;;5091552;28;20028;-54
2021/04/14 08:18:29;;;;;;;;;;;20.70;41.10;;;;;;5092364;28;20027;-49
2021/04/14 08:21:24;;;;;;;4.32;1.65;;;20.70;41.10;;;;;;5073830;28;19958;-52
2021/04/14 08:23:58;;;;;;;5.10;1.77;;;20.70;41.10;;;;;;5091492;28;20034;-53
2021/04/14 08:26:25;;;;;;;2.08;1.23;;;20.70;41.00;;;;;;5090505;28;20059;-51
2021/04/14 08:28:51;;;;;;;4.18;1.60;;;20.70;41.00;;;;;;5089684;28;20039;-54
2021/04/14 08:31:46;;;;;;;3.20;1.70;;;20.70;40.90;;;;;;5091844;28;20028;-52
2021/04/14 08:34:32;;;;;;;3.13;1.30;;;20.70;40.90;;;;;;5091823;28;20040;-50
2021/04/14 08:37:04;;;;;;;2.45;1.27;;;20.70;40.90;;;;;;5091840;28;20063;-51
2021/04/14 08:39:36;;;;;;;2.67;1.40;;;20.70;40.80;;;;;;5091249;28;20030;-54
2021/04/14 08:42:25;;;;;;;5.50;2.10;;;20.70;40.80;;;;;;5091176;28;20103;-50
2021/04/14 08:45:16;;;;;;;3.80;1.40;;;20.70;40.80;;;;;;5091089;28;20231;-50
2021/04/14 08:47:50;;;;;;;3.35;2.03;;;20.70;40.70;;;;;;5090702;28;20024;-50
2021/04/14 08:50:29;;;;;;;2.17;1.50;;;20.70;40.80;;;;;;5091394;28;20082;-53
2021/04/14 08:53:01;;;;;;;2.15;1.23;;;20.70;40.70;;;;;;5091572;28;20111;-50
2021/04/14 08:55:27;;;;;;;;;;;20.80;40.70;;;;;;5093705;28;20024;-56
2021/04/14 08:57:55;;;;;;;3.92;1.30;;;20.70;40.70;;;;;;5095131;28;20010;-50
2021/04/14 09:00:22;;;;;;;4.20;1.25;;;20.70;40.60;;;;;;5095686;28;20032;-51
2021/04/14 09:02:50;;;;;;;3.47;1.35;;;20.70;40.60;;;;;;5094697;28;20044;-49
2021/04/14 09:05:20;;;;;;;2.88;1.10;;;20.70;40.60;;;;;;5095213;28;20064;-50
2021/04/14 09:07:47;;;;;;;1.77;1.15;;;20.70;40.60;;;;;;5094762;28;20052;-52
2021/04/14 09:10:41;;;;;;;3.80;1.67;;;20.70;40.50;;;;;;5095459;28;20452;-49
2021/04/14 09:13:09;;;;;;;1.92;1.02;;;20.70;40.50;;;;;;5094063;28;20031;-52
2021/04/14 09:15:56;;;;;;;3.20;1.17;;;20.70;40.50;;;;;;5094706;28;20024;-47
2021/04/14 09:18:31;;;;;;;2.60;1.30;;;20.80;40.50;;;;;;5095135;28;20028;-48
2021/04/14 09:21:08;;;;;;;2.28;1.23;;;20.80;40.40;;;;;;5095197;28;20070;-48
2021/04/14 09:23:38;;;;;;;4.82;1.85;;;20.70;40.40;;;;;;5094160;28;20028;-51
2021/04/14 09:26:21;;;;;;;2.00;1.20;;;20.80;40.50;;;;;;5094051;28;20423;-47
2021/04/14 09:28:50;;;;;;;1.83;1.08;;;20.70;40.40;;;;;;5093936;28;20440;-47
2021/04/14 09:31:39;;;;;;;2.53;1.10;;;20.80;40.40;;;;;;5095182;28;20028;-50
2021/04/14 09:34:16;;;;;;;3.47;1.40;;;20.70;40.40;;;;;;5094933;28;20060;-52
2021/04/14 09:36:47;;;;;;;2.10;1.10;;;20.80;40.30;;;;;;5094145;28;20051;-52
2021/04/14 09:39:33;;;;;;;3.15;1.33;;;20.80;40.40;;;;;;5094965;28;20368;-52
2021/04/14 09:41:59;;;;;;;2.45;1.08;;;20.80;40.40;;;;;;5094627;28;20389;-53
2021/04/14 09:44:40;;;;;;;2.25;1.10;;;20.80;40.40;;;;;;5094437;28;20038;-48
2021/04/14 09:47:15;;;;;;;4.15;1.52;;;20.80;40.50;;;;;;5094799;28;20051;-50
2021/04/14 09:49:44;;;;;;;2.17;1.10;;;20.80;40.40;;;;;;5093879;28;20028;-48
2021/04/14 09:52:42;;;;;;;2.00;1.10;;;20.80;40.50;;;;;;5094675;28;20028;-52
2021/04/14 09:55:19;;;;;;;2.17;1.50;;;20.80;40.40;;;;;;5050691;28;20507;-50
2021/04/14 09:57:49;;;;;;;2.28;0.90;;;20.80;40.30;;;;;;5092525;28;20031;-50
2021/04/14 10:00:23;;;;;;;2.13;1.20;;;20.80;40.30;;;;;;5094558;28;20078;-51
2021/04/14 10:02:53;;;;;;;2.58;0.95;;;20.80;40.40;;;;;;5094495;28;20566;-51
2021/04/14 10:05:19;;;;;;;3.03;1.27;;;20.70;40.20;;;;;;5094419;28;20029;-49
2021/04/14 10:07:45;;;;;;;4.05;1.20;;;20.70;39.40;;;;;;5092476;28;20465;-52
2021/04/14 10:10:18;;;;;;;4.03;1.00;;;20.70;40.20;;;;;;5094004;28;20024;-48
2021/04/14 10:12:45;;;;;;;5.32;2.15;;;20.80;40.30;;;;;;5093487;28;20487;-52
2021/04/14 10:15:11;;;;;;;4.20;1.50;;;20.70;40.30;;;;;;5094090;28;20119;-51
2021/04/14 10:17:37;;;;;;;10.07;1.23;;;20.80;40.40;;;;;;5093279;28;20421;-49
2021/04/14 10:20:14;;;;;;;3.65;1.10;;;20.80;40.50;;;;;;5093973;28;20103;-52
2021/04/14 10:22:47;;;;;;;1.60;0.88;;;20.80;40.50;;;;;;5093042;28;20020;-54
2021/04/14 10:25:23;;;;;;;3.63;0.80;;;20.80;40.60;;;;;;5092745;28;20031;-50
2021/04/14 10:28:00;;;;;;;2.40;1.10;;;20.80;40.60;;;;;;5092741;28;20042;-53
2021/04/14 10:30:26;;;;;;;2.53;0.88;;;20.80;40.70;;;;;;5094137;28;20035;-47
2021/04/14 10:32:59;;;;;;;2.38;0.98;;;20.80;40.70;;;;;;5092880;28;20562;-51
2021/04/14 10:35:27;;;;;;;3.92;1.10;;;20.80;40.90;;;;;;5093613;28;20027;-50
2021/04/14 10:37:54;;;;;;;2.47;0.90;;;20.80;41.20;;;;;;5093034;28;20606;-48
2021/04/14 10:40:33;;;;;;;3.80;1.17;;;20.80;41.20;;;;;;5093635;28;20062;-54
2021/04/14 10:43:12;;;;;;;1.83;1.10;;;20.80;41.30;;;;;;5093737;28;20028;-49
2021/04/14 10:46:11;;;;;;;1.42;0.75;;;20.80;41.90;;;;;;5092676;28;20123;-51
2021/04/14 10:48:41;;;;;;;1.92;1.00;;;20.80;41.90;;;;;;5092115;28;20092;-54
2021/04/14 10:51:23;;;;;;;1.60;0.75;;;20.80;42.50;;;;;;5092919;28;20024;-51
2021/04/14 10:53:51;;;;;;;2.17;1.17;;;20.80;41.90;;;;;;5092699;28;20052;-52
2021/04/14 10:56:28;;;;;;;3.80;1.30;;;20.80;41.90;;;;;;5090187;28;20081;-55
2021/04/14 10:58:56;;;;;;;1.83;0.77;;;20.80;41.90;;;;;;5084391;28;20032;-47
2021/04/14 11:01:38;;;;;;;2.25;1.00;;;20.80;41.80;;;;;;5093616;28;20027;-47
2021/04/14 11:04:09;;;;;;;1.77;0.98;;;20.80;41.80;;;;;;5092433;28;20052;-48
2021/04/14 11:06:36;;;;;;;3.17;0.82;;;20.80;41.70;;;;;;5092694;28;20032;-57
2021/04/14 11:09:04;;;;;;;1.35;0.77;;;20.80;41.70;;;;;;5081824;28;20060;-55
2021/04/14 11:11:30;;;;;;;2.45;0.90;;;20.80;41.70;;;;;;5072953;28;20059;-52
2021/04/14 11:13:56;;;;;;;1.50;0.80;;;20.80;41.70;;;;;;5071976;28;20020;-54
2021/04/14 11:16:22;;;;;;;2.25;0.70;;;20.80;41.60;;;;;;5072734;28;20024;-53
2021/04/14 11:18:48;;;;;;;1.77;0.80;;;20.90;41.60;;;;;;5071590;28;20031;-54
2021/04/14 11:21:30;;;;;;;1.33;0.75;;;20.80;41.50;;;;;;5080404;28;20472;-54
2021/04/14 11:24:07;;;;;;;;;;;20.80;41.50;;;;;;5092513;28;20455;-52
2021/04/14 11:26:46;;;;;;;2.90;0.70;;;20.90;41.40;;;;;;5092769;28;20621;-55
2021/04/14 11:29:23;;;;;;;1.33;0.52;;;20.80;41.40;;;;;;5092691;28;20028;-52
2021/04/14 11:31:51;;;;;;;2.78;0.70;;;20.90;41.40;;;;;;5091664;28;20024;-51
2021/04/14 11:34:16;;;;;;;1.75;0.73;;;20.90;41.40;;;;;;5082135;28;20477;-52
2021/04/14 11:36:55;;;;;;;1.60;0.90;;;20.90;41.50;;;;;;5071663;28;20028;-53
2021/04/14 11:39:21;;;;;;;1.73;0.70;;;20.90;41.40;;;;;;5071785;28;20093;-48
2021/04/14 11:42:01;;;;;;;1.35;0.77;;;20.90;41.30;;;;;;5071923;28;20032;-54
2021/04/14 11:44:55;;;;;;;1.27;0.50;;;20.90;41.30;;;;;;5072191;28;20020;-52
2021/04/14 11:47:25;;;;;;;0.85;0.60;;;20.90;41.30;;;;;;5087313;28;20088;-56
2021/04/14 11:49:51;;;;;;;2.08;0.80;;;20.90;41.30;;;;;;5091375;28;20031;-48
2021/04/14 11:52:21;;;;;;;1.25;0.60;;;20.90;41.20;;;;;;5092262;28;20024;-52
2021/04/14 11:54:49;;;;;;;1.42;0.75;;;20.90;41.20;;;;;;5091066;28;20028;-54
2021/04/14 11:57:29;;;;;;;1.20;0.90;;;20.90;41.30;;;;;;5090908;28;20041;-53
2021/04/14 12:00:45;;;;;;;1.95;0.80;;;20.90;41.20;;;;;;5090138;28;20367;-52
2021/04/14 12:03:19;;;;;;;2.60;0.80;;;20.90;41.20;;;;;;5087253;28;20081;-53
2021/04/14 12:05:49;;;;;;;2.72;0.90;;;20.90;41.20;;;;;;5091244;28;20035;-51
2021/04/14 12:08:14;;;;;;;0.82;0.50;;;20.90;41.10;;;;;;5090978;28;20119;-52
2021/04/14 12:10:40;;;;;;;1.85;0.57;;;20.90;41.00;;;;;;5091441;28;20448;-56
2021/04/14 12:13:06;;;;;;;1.35;0.73;;;20.90;41.00;;;;;;5092550;28;20115;-51
2021/04/14 12:15:31;;;;;;;1.42;0.63;;;20.90;41.00;;;;;;5092237;28;20024;-52
2021/04/14 12:17:57;;;;;;;0.75;0.60;;;20.90;40.90;;;;;;5090816;28;20571;-50
2021/04/14 12:20:23;;;;;;;1.08;0.55;;;20.90;40.90;;;;;;5091677;28;20020;-50
2021/04/14 12:22:49;;;;;;;1.30;0.63;;;20.90;40.90;;;;;;5091272;28;20027;-49
2021/04/14 12:25:16;;;;;;;0.98;0.50;;;20.90;40.80;;;;;;5091905;28;20059;-51
2021/04/14 12:27:42;;;;;;;1.95;0.70;;;20.90;40.80;;;;;;5091348;28;20047;-52
2021/04/14 12:30:09;;;;;;;1.20;0.70;;;20.90;40.80;;;;;;5091194;28;20024;-49
2021/04/14 12:32:35;;;;;;;1.30;0.70;;;20.90;41.40;;;;;;5091707;28;20024;-48
2021/04/14 12:35:01;;;;;;;1.65;0.70;;;20.90;40.70;;;;;;5091381;28;20028;-50
2021/04/14 12:37:26;;;;;;;2.25;0.63;;;20.90;40.70;;;;;;5091939;28;20111;-52
2021/04/14 12:39:52;;;;;;;1.80;0.70;;;20.90;40.70;;;;;;5091098;28;20102;-49
2021/04/14 12:42:18;;;;;;;2.40;0.60;;;20.90;40.70;;;;;;5091708;28;20032;-49
2021/04/14 12:44:43;;;;;;;0.80;0.63;;;20.90;40.80;;;;;;5090703;28;20036;-49
2021/04/14 12:47:18;;;;;;;1.33;0.75;;;20.90;40.80;;;;;;5091212;28;20120;-49
2021/04/14 12:49:44;;;;;;;1.60;0.70;;;20.90;41.40;;;;;;5090972;28;20032;-48
2021/04/14 12:52:23;;;;;;;1.55;0.93;;;20.90;40.60;;;;;;5091507;28;20024;-47
2021/04/14 12:54:50;;;;;;;1.67;0.70;;;20.90;40.70;;;;;;5091023;28;20103;-50
2021/04/14 12:57:25;;;;;;;1.73;0.50;;;20.90;40.70;;;;;;5091670;28;20111;-48
2021/04/14 13:00:14;;;;;;;1.45;0.60;;;20.90;40.70;;;;;;5090937;28;20433;-48
2021/04/14 13:02:57;;;;;;;0.70;0.50;;;20.90;40.70;;;;;;5090893;28;20052;-54
2021/04/14 13:05:30;;;;;;;0.95;0.50;;;20.90;40.70;;;;;;5091735;28;20120;-51
2021/04/14 13:08:01;;;;;;;1.20;0.50;;;20.90;40.70;;;;;;5090986;28;20043;-49
2021/04/14 13:10:35;;;;;;;1.10;0.50;;;20.90;40.70;;;;;;5091595;28;20102;-48